createdAt,value
2022-10-18T00:00:44.257Z,2.28
2022-10-18T00:03:10.869Z,2.28
2022-10-18T00:05:40.397Z,2.50
2022-10-18T00:08:06.969Z,2.53
2022-10-18T00:10:33.694Z,2.55
2022-10-18T00:13:00.375Z,2.65
2022-10-18T00:15:26.967Z,2.40
2022-10-18T00:17:53.616Z,2.50
2022-10-18T00:20:20.218Z,2.20
2022-10-18T00:22:46.901Z,2.67
2022-10-18T00:25:13.662Z,2.47
2022-10-18T00:27:40.335Z,2.65
2022-10-18T00:30:07.384Z,2.20
2022-10-18T00:32:38.503Z,2.40
2022-10-18T00:35:05.745Z,2.08
2022-10-18T00:37:32.877Z,2.00
2022-10-18T00:39:59.465Z,2.60
2022-10-18T00:42:32.414Z,2.60
2022-10-18T00:45:10.709Z,2.88
2022-10-18T00:47:37.339Z,2.33
2022-10-18T00:50:06.127Z,2.50
2022-10-18T00:52:38.837Z,2.42
2022-10-18T00:55:05.913Z,2.58
2022-10-18T00:57:32.985Z,2.50
2022-10-18T00:59:59.670Z,2.60
2022-10-18T01:02:26.417Z,2.28
2022-10-18T01:04:53.127Z,2.45
2022-10-18T01:07:27.588Z,2.40
2022-10-18T01:10:08.688Z,2.30
2022-10-18T01:12:44.495Z,2.35
2022-10-18T01:15:13.505Z,2.55
2022-10-18T01:17:58.932Z,2.67
2022-10-18T01:20:52.208Z,2.42
2022-10-18T01:23:50.929Z,2.42
2022-10-18T01:26:48.067Z,1.88
2022-10-18T01:29:26.478Z,2.53
2022-10-18T01:32:01.313Z,2.22
2022-10-18T01:34:29.016Z,2.88
2022-10-18T01:36:55.767Z,2.03
2022-10-18T01:39:34.389Z,2.55
2022-10-18T01:42:01.862Z,2.35
2022-10-18T01:44:29.501Z,2.78
2022-10-18T01:46:56.391Z,2.28
2022-10-18T01:49:23.734Z,2.80
2022-10-18T01:51:50.352Z,2.90
2022-10-18T01:54:23.841Z,2.80
2022-10-18T01:57:07.864Z,2.15
2022-10-18T01:59:43.341Z,2.40
2022-10-18T02:02:23.681Z,2.08
2022-10-18T02:05:08.782Z,2.10
2022-10-18T02:08:00.105Z,2.00
2022-10-18T02:10:50.213Z,2.13
2022-10-18T02:13:19.024Z,2.17
2022-10-18T02:15:47.534Z,2.42
2022-10-18T02:18:17.661Z,2.03
2022-10-18T02:20:44.336Z,1.95
2022-10-18T02:23:11.251Z,2.28
2022-10-18T02:25:40.669Z,2.30
2022-10-18T02:28:07.356Z,2.58
2022-10-18T02:30:41.073Z,2.47
2022-10-18T02:33:17.932Z,2.63
2022-10-18T02:35:48.309Z,2.20
2022-10-18T02:38:14.970Z,2.22
2022-10-18T02:40:41.697Z,2.35
2022-10-18T02:43:08.308Z,2.50
2022-10-18T02:45:35.245Z,2.95
2022-10-18T02:48:01.786Z,2.30
2022-10-18T02:50:28.408Z,2.08
2022-10-18T02:52:54.994Z,2.08
2022-10-18T02:55:21.634Z,2.25
2022-10-18T02:57:48.303Z,2.15
2022-10-18T03:00:15.346Z,2.20
2022-10-18T03:02:42.010Z,1.50
2022-10-18T03:05:08.648Z,1.70
2022-10-18T03:07:35.477Z,1.90
2022-10-18T03:10:02.209Z,2.03
2022-10-18T03:12:28.842Z,2.30
2022-10-18T03:14:55.433Z,2.15
2022-10-18T03:17:22.098Z,2.60
2022-10-18T03:19:48.764Z,2.28
2022-10-18T03:22:15.410Z,2.40
2022-10-18T03:24:42.101Z,1.98
2022-10-18T03:27:08.790Z,2.30
2022-10-18T03:29:35.449Z,2.50
2022-10-18T03:32:02.044Z,2.22
2022-10-18T03:34:28.688Z,2.20
2022-10-18T03:36:55.331Z,2.25
2022-10-18T03:39:21.923Z,1.92
2022-10-18T03:41:48.518Z,1.90
2022-10-18T03:44:15.248Z,1.50
2022-10-18T03:46:41.874Z,2.10
2022-10-18T03:49:08.441Z,2.17
2022-10-18T03:51:35.014Z,2.10
2022-10-18T03:54:01.693Z,1.73
2022-10-18T03:56:28.414Z,1.98
2022-10-18T03:58:55.065Z,1.90
2022-10-18T04:01:21.777Z,2.03
2022-10-18T04:03:48.405Z,2.13
2022-10-18T04:06:15.103Z,1.85
2022-10-18T04:08:41.712Z,1.77
2022-10-18T04:11:08.371Z,1.80
2022-10-18T04:13:35.311Z,1.95
2022-10-18T04:16:01.841Z,2.22
2022-10-18T04:18:28.469Z,1.73
2022-10-18T04:20:55.154Z,1.90
2022-10-18T04:23:21.743Z,1.67
2022-10-18T04:25:49.083Z,1.50
2022-10-18T04:28:15.951Z,2.10
2022-10-18T04:30:42.606Z,1.73
2022-10-18T04:33:09.165Z,1.88
2022-10-18T04:35:35.754Z,2.30
2022-10-18T04:38:02.347Z,2.13
2022-10-18T04:40:28.991Z,1.67
2022-10-18T04:42:55.866Z,1.50
2022-10-18T04:45:24.075Z,1.65
2022-10-18T04:47:50.930Z,1.83
2022-10-18T04:50:17.522Z,1.63
2022-10-18T04:52:44.216Z,1.80
2022-10-18T04:55:10.899Z,1.65
2022-10-18T04:57:37.539Z,1.70
2022-10-18T05:00:04.932Z,1.63
2022-10-18T05:02:31.937Z,1.35
2022-10-18T05:04:58.742Z,1.65
2022-10-18T05:07:25.498Z,1.73
2022-10-18T05:09:52.111Z,1.70
2022-10-18T05:12:18.749Z,1.77
2022-10-18T05:14:45.409Z,1.92
2022-10-18T05:17:12.015Z,1.85
2022-10-18T05:19:38.694Z,1.35
2022-10-18T05:22:05.372Z,1.60
2022-10-18T05:24:32.129Z,1.90
2022-10-18T05:26:58.777Z,1.70
2022-10-18T05:29:25.579Z,1.73
2022-10-18T05:31:52.493Z,1.60
2022-10-18T05:34:19.038Z,1.98
2022-10-18T05:36:45.743Z,1.63
2022-10-18T05:39:12.384Z,1.70
2022-10-18T05:41:38.961Z,1.80
2022-10-18T05:44:05.816Z,1.75
2022-10-18T05:46:32.497Z,1.70
2022-10-18T05:48:59.434Z,1.80
2022-10-18T05:51:26.089Z,1.83
2022-10-18T05:53:52.654Z,2.97
2022-10-18T05:56:19.304Z,2.85
2022-10-18T05:58:50.194Z,2.03
2022-10-18T06:01:16.878Z,1.92
2022-10-18T06:03:43.535Z,1.88
2022-10-18T06:06:11.044Z,1.80
2022-10-18T06:08:38.083Z,1.45
2022-10-18T06:11:07.753Z,1.60
2022-10-18T06:13:34.735Z,2.40
2022-10-18T06:16:01.351Z,2.03
2022-10-18T06:18:28.021Z,1.77
2022-10-18T06:20:58.416Z,1.98
2022-10-18T06:23:26.383Z,3.55
2022-10-18T06:25:53.041Z,3.65
2022-10-18T06:28:19.675Z,3.20
2022-10-18T06:30:46.978Z,2.67
2022-10-18T06:33:13.539Z,2.08
2022-10-18T06:35:40.132Z,2.20
2022-10-18T06:38:06.729Z,2.58
2022-10-18T06:40:33.373Z,2.80
2022-10-18T06:43:00.685Z,2.75
2022-10-18T06:45:37.296Z,3.00
2022-10-18T06:48:04.035Z,2.97
2022-10-18T06:50:30.733Z,2.30
2022-10-18T06:52:57.876Z,2.38
2022-10-18T06:55:24.479Z,2.22
2022-10-18T06:57:51.820Z,2.60
2022-10-18T07:00:18.501Z,2.50
2022-10-18T07:02:45.085Z,2.67
2022-10-18T07:05:11.635Z,2.30
2022-10-18T07:07:38.345Z,2.25
2022-10-18T07:10:05.481Z,2.50
2022-10-18T07:12:32.355Z,2.10
2022-10-18T07:14:59.036Z,2.45
2022-10-18T07:17:25.652Z,2.88
2022-10-18T07:19:52.298Z,2.20
2022-10-18T07:22:18.858Z,2.10
2022-10-18T07:24:45.558Z,2.30
2022-10-18T07:27:12.133Z,2.22
2022-10-18T07:29:38.671Z,2.30
2022-10-18T07:32:05.390Z,2.17
2022-10-18T07:34:31.931Z,2.28
2022-10-18T07:36:58.535Z,2.10
2022-10-18T07:39:25.107Z,2.00
2022-10-18T07:41:51.621Z,2.03
2022-10-18T07:44:18.154Z,2.30
2022-10-18T07:46:44.703Z,2.05
2022-10-18T07:49:11.781Z,2.05
2022-10-18T07:51:38.432Z,2.35
2022-10-18T07:54:05.773Z,2.17
2022-10-18T07:56:32.282Z,2.67
2022-10-18T07:58:58.831Z,2.55
2022-10-18T08:01:25.682Z,2.22
2022-10-18T08:03:52.442Z,2.70
2022-10-18T08:06:19.278Z,2.83
2022-10-18T08:08:45.846Z,2.70
2022-10-18T08:11:20.063Z,2.50
2022-10-18T08:13:46.872Z,2.45
2022-10-18T08:16:15.527Z,2.80
2022-10-18T08:18:42.112Z,2.50
2022-10-18T08:21:10.059Z,2.28
2022-10-18T08:23:37.010Z,2.80
2022-10-18T08:26:11.431Z,2.83
2022-10-18T08:28:38.020Z,3.03
2022-10-18T08:31:05.800Z,3.20
2022-10-18T08:33:32.816Z,3.08
2022-10-18T08:36:00.543Z,3.13
2022-10-18T08:38:30.689Z,3.05
2022-10-18T08:40:59.972Z,3.22
2022-10-18T08:43:40.711Z,3.65
2022-10-18T08:46:10.885Z,4.25
2022-10-18T08:48:40.264Z,3.60
2022-10-18T08:51:07.342Z,3.58
2022-10-18T08:53:40.093Z,3.53
2022-10-18T08:56:15.868Z,3.70
2022-10-18T08:58:45.647Z,3.88
2022-10-18T09:01:39.603Z,3.50
2022-10-18T09:04:34.162Z,3.33
2022-10-18T09:07:13.743Z,3.10
2022-10-18T09:10:00.618Z,3.22
2022-10-18T09:12:30.389Z,3.10
2022-10-18T09:15:17.041Z,3.30
2022-10-18T09:18:18.733Z,3.17
2022-10-18T09:20:49.855Z,3.15
2022-10-18T09:23:20.619Z,4.00
2022-10-18T09:25:48.897Z,2.90
2022-10-18T09:28:36.340Z,3.20
2022-10-18T09:31:23.316Z,3.47
2022-10-18T09:33:54.331Z,3.00
2022-10-18T09:36:28.375Z,3.95
2022-10-18T09:39:01.500Z,4.00
2022-10-18T09:41:31.154Z,4.07
2022-10-18T09:44:10.528Z,3.33
2022-10-18T09:46:38.953Z,3.67
2022-10-18T09:49:16.387Z,3.70
2022-10-18T09:51:43.193Z,3.30
2022-10-18T09:54:21.806Z,4.00
2022-10-18T09:57:13.860Z,3.28
2022-10-18T09:59:42.618Z,3.63
2022-10-18T10:02:16.910Z,3.80
2022-10-18T10:04:43.666Z,4.07
2022-10-18T10:07:34.928Z,3.65
2022-10-18T10:10:17.580Z,3.80
2022-10-18T10:12:44.198Z,4.43
2022-10-18T10:15:27.019Z,4.13
2022-10-18T10:17:57.669Z,4.30
2022-10-18T10:20:37.694Z,4.25
2022-10-18T10:23:16.141Z,4.43
2022-10-18T10:25:42.725Z,4.53
2022-10-18T10:28:16.714Z,4.30
2022-10-18T10:30:43.255Z,4.20
2022-10-18T10:33:32.384Z,3.85
2022-10-18T10:35:59.719Z,3.40
2022-10-18T10:38:27.426Z,4.13
2022-10-18T10:40:54.107Z,3.67
2022-10-18T10:43:39.993Z,3.65
2022-10-18T10:46:14.455Z,3.72
2022-10-18T10:49:00.391Z,3.30
2022-10-18T10:51:39.110Z,3.65
2022-10-18T10:54:16.178Z,2.97
2022-10-18T10:56:58.463Z,2.90
2022-10-18T10:59:26.033Z,2.78
2022-10-18T11:02:14.029Z,3.05
2022-10-18T11:04:41.011Z,2.83
2022-10-18T11:07:27.600Z,2.88
2022-10-18T11:10:22.203Z,2.95
2022-10-18T11:13:10.155Z,2.50
2022-10-18T11:15:39.279Z,2.60
2022-10-18T11:18:29.470Z,2.65
2022-10-18T11:21:09.843Z,2.47
2022-10-18T11:23:40.402Z,2.63
2022-10-18T11:26:13.074Z,2.90
2022-10-18T11:28:42.469Z,2.72
2022-10-18T11:31:27.155Z,3.13
2022-10-18T11:34:15.675Z,2.97
2022-10-18T11:37:22.576Z,2.97
2022-10-18T11:40:35.153Z,2.70
2022-10-18T11:43:30.275Z,2.33
2022-10-18T11:46:29.756Z,2.10
2022-10-18T11:49:03.530Z,2.42
2022-10-18T11:51:56.037Z,2.55
2022-10-18T11:54:51.346Z,2.90
2022-10-18T11:57:44.118Z,2.60
2022-10-18T12:00:23.137Z,2.95
2022-10-18T12:02:55.718Z,2.55
2022-10-18T12:05:24.341Z,2.85
2022-10-18T12:08:23.375Z,2.40
2022-10-18T12:11:04.596Z,2.10
2022-10-18T12:13:49.130Z,1.92
2022-10-18T12:16:16.285Z,2.10
2022-10-18T12:19:07.197Z,1.92
2022-10-18T12:21:34.193Z,2.17
2022-10-18T12:24:17.384Z,2.15
2022-10-18T12:26:44.017Z,2.25
2022-10-18T12:29:32.470Z,2.15
2022-10-18T12:32:01.564Z,3.13
2022-10-18T12:34:40.724Z,2.30
2022-10-18T12:37:44.240Z,2.80
2022-10-18T12:40:25.506Z,2.40
2022-10-18T12:42:52.348Z,2.08
2022-10-18T12:45:30.135Z,1.80
2022-10-18T12:47:59.812Z,1.83
2022-10-18T12:50:31.431Z,1.92
2022-10-18T12:53:20.793Z,1.70
2022-10-18T12:55:51.185Z,1.55
2022-10-18T12:58:26.038Z,2.00
2022-10-18T13:00:54.332Z,1.85
2022-10-18T13:03:20.942Z,1.80
2022-10-18T13:05:55.915Z,2.03
2022-10-18T13:08:40.487Z,1.85
2022-10-18T13:11:10.323Z,1.80
2022-10-18T13:13:58.311Z,1.60
2022-10-18T13:16:43.781Z,1.63
2022-10-18T13:19:28.993Z,1.73
2022-10-18T13:22:12.495Z,1.60
2022-10-18T13:24:42.446Z,1.70
2022-10-18T13:27:35.644Z,1.90
2022-10-18T13:30:18.789Z,1.77
2022-10-18T13:33:22.850Z,1.50
2022-10-18T13:35:52.245Z,1.67
2022-10-18T13:38:40.903Z,1.70
2022-10-18T13:41:10.309Z,1.58
2022-10-18T13:43:52.656Z,1.63
2022-10-18T13:46:23.949Z,1.70
2022-10-18T13:48:50.747Z,1.75
2022-10-18T13:51:17.564Z,1.92
2022-10-18T13:53:58.828Z,1.90
2022-10-18T13:56:48.930Z,2.10
2022-10-18T13:59:26.177Z,2.10
2022-10-18T14:02:11.186Z,1.40
2022-10-18T14:04:43.669Z,1.92
2022-10-18T14:07:10.328Z,1.80
2022-10-18T14:09:47.842Z,1.95
2022-10-18T14:12:40.868Z,1.80
2022-10-18T14:15:16.299Z,1.85
2022-10-18T14:17:52.946Z,1.60
2022-10-18T14:20:34.594Z,2.00
2022-10-18T14:23:20.398Z,2.17
2022-10-18T14:25:47.136Z,2.13
2022-10-18T14:28:15.633Z,2.05
2022-10-18T14:31:01.175Z,2.20
2022-10-18T14:38:39.145Z,2.05
2022-10-18T14:41:26.940Z,1.60
2022-10-18T14:44:09.487Z,1.80
2022-10-18T14:46:44.618Z,1.70
2022-10-18T14:51:39.112Z,1.45
2022-10-18T14:54:06.948Z,1.40
2022-10-18T14:56:37.911Z,1.88
2022-10-18T14:59:05.108Z,2.22
2022-10-18T15:02:23.518Z,3.45
2022-10-18T15:05:04.937Z,3.72
2022-10-18T15:07:32.121Z,4.30
2022-10-18T15:10:00.156Z,4.60
2022-10-18T15:12:27.114Z,4.25
2022-10-18T15:14:56.735Z,3.90
2022-10-18T15:17:30.777Z,5.10
2022-10-18T15:20:05.000Z,4.20
2022-10-18T15:22:33.449Z,4.15
2022-10-18T15:25:11.478Z,4.70
2022-10-18T15:27:38.907Z,5.03
2022-10-18T15:30:20.475Z,4.70
2022-10-18T15:32:51.525Z,5.43
2022-10-18T15:35:38.460Z,5.45
2022-10-18T15:38:27.784Z,4.93
2022-10-18T15:40:54.847Z,4.65
2022-10-18T15:43:24.539Z,4.47
2022-10-18T15:45:52.756Z,4.90
2022-10-18T15:48:36.170Z,4.60
2022-10-18T15:51:06.988Z,4.20
2022-10-18T15:53:41.713Z,4.40
2022-10-18T15:56:30.645Z,4.60
2022-10-18T15:59:00.604Z,4.85
2022-10-18T16:01:36.615Z,4.55
2022-10-18T16:04:24.917Z,4.60
2022-10-18T16:06:51.666Z,4.22
2022-10-18T16:09:19.934Z,4.55
2022-10-18T16:11:47.388Z,4.47
2022-10-18T16:14:14.301Z,4.43
2022-10-18T16:16:41.083Z,4.82
2022-10-18T16:19:08.243Z,4.30
2022-10-18T16:21:36.493Z,4.72
2022-10-18T16:24:03.658Z,4.70
2022-10-18T16:26:32.881Z,3.33
2022-10-18T16:28:59.647Z,4.32
2022-10-18T16:31:28.280Z,4.25
2022-10-18T16:33:57.686Z,4.30
2022-10-18T16:36:31.372Z,4.50
2022-10-18T16:38:58.515Z,3.85
2022-10-18T16:41:38.275Z,3.95
2022-10-18T16:44:06.454Z,3.60
2022-10-18T16:46:36.141Z,4.30
2022-10-18T16:49:03.145Z,3.83
2022-10-18T16:51:29.720Z,4.32
2022-10-18T16:53:56.363Z,3.90
2022-10-18T16:56:28.506Z,4.07
2022-10-18T16:58:55.074Z,4.32
2022-10-18T17:01:22.473Z,4.18
2022-10-18T17:03:49.153Z,4.18
2022-10-18T17:06:18.016Z,3.63
2022-10-18T17:08:45.011Z,3.80
2022-10-18T17:11:11.843Z,4.03
2022-10-18T17:13:38.596Z,4.10
2022-10-18T17:16:05.463Z,3.58
2022-10-18T17:18:32.218Z,3.65
2022-10-18T17:21:01.878Z,3.75
2022-10-18T17:23:31.414Z,4.05
2022-10-18T17:26:08.579Z,3.50
2022-10-18T17:28:44.983Z,3.63
2022-10-18T17:31:12.313Z,3.65
2022-10-18T17:33:39.270Z,3.90
2022-10-18T17:36:06.192Z,3.67
2022-10-18T17:38:42.576Z,3.95
2022-10-18T17:41:17.043Z,3.30
2022-10-18T17:43:44.367Z,3.70
2022-10-18T17:46:15.103Z,3.13
2022-10-18T17:48:42.141Z,3.80
2022-10-18T17:51:13.016Z,3.40
2022-10-18T17:53:41.157Z,3.25
2022-10-18T17:56:08.128Z,3.40
2022-10-18T17:58:35.149Z,4.00
2022-10-18T18:01:12.100Z,3.38
2022-10-18T18:03:38.933Z,3.25
2022-10-18T18:06:36.126Z,3.70
2022-10-18T18:09:07.471Z,3.75
2022-10-18T18:11:35.217Z,3.47
2022-10-18T18:14:01.963Z,3.38
2022-10-18T18:16:29.555Z,3.03
2022-10-18T18:18:57.188Z,3.42
2022-10-18T18:21:29.959Z,3.65
2022-10-18T18:23:57.126Z,3.80
2022-10-18T18:26:24.002Z,3.33
2022-10-18T18:28:50.761Z,3.28
2022-10-18T18:31:22.002Z,3.35
2022-10-18T18:33:48.667Z,3.35
2022-10-18T18:36:15.332Z,2.95
2022-10-18T18:38:42.082Z,3.20
2022-10-18T18:41:18.720Z,3.45
2022-10-18T18:43:56.210Z,2.95
2022-10-18T18:46:23.346Z,3.25
2022-10-18T18:48:51.882Z,3.22
2022-10-18T18:51:19.514Z,2.97
2022-10-18T18:53:46.390Z,3.47
2022-10-18T18:56:18.334Z,3.50
2022-10-18T18:58:47.390Z,3.60
2022-10-18T19:01:25.105Z,3.58
2022-10-18T19:03:53.455Z,3.45
2022-10-18T19:06:24.778Z,3.20
2022-10-18T19:08:51.483Z,2.85
2022-10-18T19:11:19.469Z,2.83
2022-10-18T19:13:48.281Z,3.08
2022-10-18T19:16:28.667Z,3.20
2022-10-18T19:19:17.045Z,3.10
2022-10-18T19:21:52.076Z,2.85
2022-10-18T19:24:19.501Z,2.97
2022-10-18T19:26:46.946Z,3.00
2022-10-18T19:29:18.094Z,3.20
2022-10-18T19:31:44.831Z,3.33
2022-10-18T19:34:12.313Z,2.67
2022-10-18T19:36:39.536Z,2.90
2022-10-18T19:39:07.227Z,2.70
2022-10-18T19:41:33.728Z,2.85
2022-10-18T19:44:00.361Z,3.00
2022-10-18T19:46:26.977Z,2.75
2022-10-18T19:48:53.575Z,2.83
2022-10-18T19:51:23.002Z,2.63
2022-10-18T19:53:51.884Z,2.97
2022-10-18T19:56:20.952Z,3.00
2022-10-18T19:58:47.728Z,2.47
2022-10-18T20:01:14.618Z,3.30
2022-10-18T20:03:41.163Z,2.50
2022-10-18T20:06:07.864Z,2.53
2022-10-18T20:08:34.913Z,2.20
2022-10-18T20:11:02.531Z,1.85
2022-10-18T20:13:29.152Z,2.38
2022-10-18T20:15:55.814Z,2.70
2022-10-18T20:18:22.343Z,2.50
2022-10-18T20:20:48.969Z,2.42
2022-10-18T20:23:18.536Z,2.55
2022-10-18T20:26:04.740Z,2.55
2022-10-18T20:28:31.363Z,2.20
2022-10-18T20:31:11.115Z,2.30
2022-10-18T20:33:37.722Z,2.30
2022-10-18T20:36:11.816Z,1.80
2022-10-18T20:38:38.992Z,2.20
2022-10-18T20:41:06.927Z,2.17
2022-10-18T20:43:34.850Z,2.42
2022-10-18T20:46:01.489Z,2.30
2022-10-18T20:48:28.124Z,1.90
2022-10-18T20:50:54.668Z,1.60
2022-10-18T20:53:21.214Z,1.80
2022-10-18T20:55:48.367Z,2.13
2022-10-18T20:58:22.194Z,2.00
2022-10-18T21:00:55.817Z,2.08
2022-10-18T21:03:22.489Z,1.98
2022-10-18T21:05:52.335Z,2.03
2022-10-18T21:08:19.833Z,1.88
2022-10-18T21:10:52.646Z,1.95
2022-10-18T21:13:24.943Z,1.88
2022-10-18T21:16:00.581Z,2.10
2022-10-18T21:18:31.551Z,1.70
2022-10-18T21:23:38.503Z,1.92
2022-10-18T21:26:16.436Z,1.95
2022-10-18T21:28:47.956Z,1.63
2022-10-18T21:31:16.494Z,1.73
2022-10-18T21:33:43.335Z,2.00
2022-10-18T21:36:13.342Z,1.85
2022-10-18T21:38:39.900Z,1.63
2022-10-18T21:41:10.132Z,1.73
2022-10-18T21:43:40.051Z,1.77
2022-10-18T21:46:06.903Z,1.85
2022-10-18T21:48:33.544Z,1.77
2022-10-18T21:51:09.731Z,1.58
2022-10-18T21:53:36.928Z,2.00
2022-10-18T21:56:07.625Z,1.90
2022-10-18T21:58:35.256Z,1.48
2022-10-18T22:01:24.781Z,1.77
2022-10-18T22:03:52.513Z,1.77
2022-10-18T22:06:19.256Z,1.80
2022-10-18T22:08:53.226Z,1.65
2022-10-18T22:11:21.898Z,1.95
2022-10-18T22:13:48.725Z,2.00
2022-10-18T22:16:15.641Z,1.80
2022-10-18T22:18:42.584Z,1.90
2022-10-18T22:21:09.974Z,1.67
2022-10-18T22:23:44.598Z,1.98
2022-10-18T22:26:12.962Z,1.70
2022-10-18T22:28:40.190Z,1.73
2022-10-18T22:31:06.817Z,2.05
2022-10-18T22:33:33.434Z,1.90
2022-10-18T22:36:00.210Z,1.80
2022-10-18T22:38:27.880Z,1.85
2022-10-18T22:40:54.424Z,1.50
2022-10-18T22:43:21.046Z,1.80
2022-10-18T22:45:47.588Z,1.33
2022-10-18T22:48:21.501Z,1.40
2022-10-18T22:50:48.075Z,1.50
2022-10-18T22:53:17.455Z,1.50
2022-10-18T22:55:44.341Z,1.60
2022-10-18T22:58:15.684Z,1.67
2022-10-18T23:00:42.481Z,1.73
2022-10-18T23:03:10.802Z,1.92
2022-10-18T23:05:38.632Z,1.85
2022-10-18T23:08:09.518Z,1.75
2022-10-18T23:10:39.947Z,2.03
2022-10-18T23:13:06.668Z,1.90
2022-10-18T23:15:39.013Z,1.70
2022-10-18T23:18:05.770Z,1.67
2022-10-18T23:20:32.281Z,1.73
2022-10-18T23:22:58.773Z,1.70
2022-10-18T23:25:25.301Z,1.70
2022-10-18T23:27:51.848Z,1.65
2022-10-18T23:30:18.549Z,1.67
2022-10-18T23:32:45.145Z,1.90
2022-10-18T23:35:11.725Z,2.10
2022-10-18T23:37:41.894Z,1.65
2022-10-18T23:40:09.319Z,1.90
2022-10-18T23:42:36.081Z,1.75
2022-10-18T23:45:02.908Z,1.67
2022-10-18T23:47:29.670Z,2.00
2022-10-18T23:49:56.346Z,1.52
2022-10-18T23:52:24.182Z,1.90
2022-10-18T23:54:51.051Z,1.70
2022-10-18T23:57:17.530Z,1.80
2022-10-18T23:59:44.013Z,1.63
